Terminal Aerodrome Forecast
Issued by NWS

Home | Current Version | Previous Version | Text Only | Print | Product List | Glossary On
Versions: 1 2 3 4 5 6 7 8 9 10 11 12 13 14 15 16 17 18
000
FTUS45 KBOI 200020 AAA
TAFTWF
TAF AMD
KTWF 200020Z 2000/2024 29010KT P6SM VCSH SCT070 BKN100
     FM200300 18009KT P6SM BKN050
     FM201200 12007KT P6SM OVC100
     FM201900 15012KT P6SM -SHRA BKN050=

USA.gov is the U.S. government's official web portal to all federal, state and local government web resources and services.